Friend, NE (68359)

7:52 PM CST on December 03, 2016 (GMT -0600)
3 Miles East of Friend | | Change Station

Elev 1531 ft 40.66 °N, 97.22 °W | Updated 12 seconds ago

Light Snow
Light Snow
32.6 °F
Feels Like 33 °F
N
1.9
Wind Variable Wind from ESE
Gusts 2.3 mph

Today
High -- | Low -- °F
--% Chance of Precip.
Yesterday
High -- | Low -- °F
Precip. -- in
Pressure 30.08 in
Visibility 3.0 miles
Clouds Overcast 300 ft
Windchill 33 °F
Dew Point 32 °F
Humidity 97%
Rainfall 0.29 in
Snow Depth Not available.
7:36 AM 5:02 PM
Waxing Crescent, 18% visible
METAR KJYR 040135Z AUTO 00000KT 3SM -SN OVC003 00/00 A3008 RMK AO2
Pressure 30.08 in
Visibility 3.0 miles
Clouds Overcast 300 ft
Windchill 33 °F
Dew Point 32 °F
Humidity 97%
Rainfall 0.29 in
Snow Depth Not available.
7:36 AM 5:02 PM
Waxing Crescent, 18% visible
METAR KJYR 040135Z AUTO 00000KT 3SM -SN OVC003 00/00 A3008 RMK AO2

10-Day Weather Forecast

Almanac

Astronomy

Dec. 03, 2016 Rise Set
Actual Time
Civil Twilight
Nautical Twilight
Astronomical Twilight
Moon
Length of Visible Light
Length of Day
Tomorrow will be .
, % of the Moon is Illuminated

Today's Extremes

State Highs State Lows

Community

WunderPhotos

Upload Photos

1,955,560 photos uploaded!

WunderBlog® & News

Nearby

Air Quality

  Air Quality AQ Index Pollutant
Not available.

Snow Depth

Station Depth Elevation

Earthquake Activity

City Distance Mag. Time & Date
Minimum magnitude displayed is 2.5.

Coastal Water Temperatures

Place Temperature

Stations

Nearby Weather Stations

Station Location Temp. Windchill Dew Point Humidity Wind Precip. Elev Updated Type
                   

Watches & Warnings

There are currently no watches in effect.